Fayetteville, Ohio
Current Conditions -  °F | °C
As of 3:54 AM on Thursday 23 Oct 2014 (Local Time) from KILN Reporting Station
Overcast Overcast  
Wind Chill: 42°   Ceiling: 3100
Heat Index: 46°   Visibility: 10mi
Dew Point: 39°   Wind: 7mph
Humidity: 76%   Direction: 330°NNW
Pressure: 30.25"   Gusts: NA
Location:  39.19°N, 83.93°W
Report Text: KILN 230754Z AUTO 33006KT 10SM OVC031 08/04 A3025 RMK AO2 SLP254 T00780039
Loading
Personal Weather Stations






























Interactive Weather Map
Tropical Storm Tracking
New forecast layout! Learn more

10-Day Weather Forecast

Advertisements
Track Severe Weather on mobile